sensor_id;sensor_type;location;lat;lon;timestamp;P1;P2;P0
63915;PMS5003;50094;51.356;-0.196;2023-08-17T00:01:38;8;8;
63915;PMS5003;50094;51.356;-0.196;2023-08-17T00:04:05;9;9;
63915;PMS5003;50094;51.356;-0.196;2023-08-17T00:06:32;9;9;
63915;PMS5003;50094;51.356;-0.196;2023-08-17T00:08:59;10;9;
63915;PMS5003;50094;51.356;-0.196;2023-08-17T00:11:27;8;8;
63915;PMS5003;50094;51.356;-0.196;2023-08-17T00:13:53;9;9;
63915;PMS5003;50094;51.356;-0.196;2023-08-17T00:16:20;10;9;
63915;PMS5003;50094;51.356;-0.196;2023-08-17T00:18:48;14;10;
63915;PMS5003;50094;51.356;-0.196;2023-08-17T00:21:15;9;9;
63915;PMS5003;50094;51.356;-0.196;2023-08-17T00:23:41;9;8;
63915;PMS5003;50094;51.356;-0.196;2023-08-17T00:26:08;8;8;
63915;PMS5003;50094;51.356;-0.196;2023-08-17T00:28:36;9;8;
63915;PMS5003;50094;51.356;-0.196;2023-08-17T00:31:04;8;8;
63915;PMS5003;50094;51.356;-0.196;2023-08-17T00:33:31;10;9;
63915;PMS5003;50094;51.356;-0.196;2023-08-17T00:35:58;9;8;
63915;PMS5003;50094;51.356;-0.196;2023-08-17T00:38:26;8;8;
63915;PMS5003;50094;51.356;-0.196;2023-08-17T00:40:53;12;12;
63915;PMS5003;50094;51.356;-0.196;2023-08-17T00:43:20;8;8;
63915;PMS5003;50094;51.356;-0.196;2023-08-17T00:45:48;9;8;
63915;PMS5003;50094;51.356;-0.196;2023-08-17T00:48:15;12;9;
63915;PMS5003;50094;51.356;-0.196;2023-08-17T00:50:43;9;8;
63915;PMS5003;50094;51.356;-0.196;2023-08-17T00:53:14;11;9;
63915;PMS5003;50094;51.356;-0.196;2023-08-17T00:55:42;8;8;
63915;PMS5003;50094;51.356;-0.196;2023-08-17T00:58:09;10;9;
63915;PMS5003;50094;51.356;-0.196;2023-08-17T01:00:37;10;7;
63915;PMS5003;50094;51.356;-0.196;2023-08-17T01:03:04;12;12;
63915;PMS5003;50094;51.356;-0.196;2023-08-17T01:05:32;9;7;
63915;PMS5003;50094;51.356;-0.196;2023-08-17T01:07:59;14;11;
63915;PMS5003;50094;51.356;-0.196;2023-08-17T01:10:26;13;10;
63915;PMS5003;50094;51.356;-0.196;2023-08-17T01:13:04;12;10;
63915;PMS5003;50094;51.356;-0.196;2023-08-17T01:15:37;9;9;
63915;PMS5003;50094;51.356;-0.196;2023-08-17T01:18:09;10;8;
63915;PMS5003;50094;51.356;-0.196;2023-08-17T01:20:44;14;10;
63915;PMS5003;50094;51.356;-0.196;2023-08-17T01:23:12;14;11;
63915;PMS5003;50094;51.356;-0.196;2023-08-17T01:25:40;10;10;
63915;PMS5003;50094;51.356;-0.196;2023-08-17T01:28:07;10;8;
63915;PMS5003;50094;51.356;-0.196;2023-08-17T01:30:37;10;8;
63915;PMS5003;50094;51.356;-0.196;2023-08-17T01:33:17;10;8;
63915;PMS5003;50094;51.356;-0.196;2023-08-17T01:35:54;11;11;
63915;PMS5003;50094;51.356;-0.196;2023-08-17T01:38:27;12;11;
63915;PMS5003;50094;51.356;-0.196;2023-08-17T01:40:56;12;12;
63915;PMS5003;50094;51.356;-0.196;2023-08-17T01:43:25;13;12;
63915;PMS5003;50094;51.356;-0.196;2023-08-17T01:45:53;11;11;
63915;PMS5003;50094;51.356;-0.196;2023-08-17T01:48:20;12;11;
63915;PMS5003;50094;51.356;-0.196;2023-08-17T01:50:48;12;11;
63915;PMS5003;50094;51.356;-0.196;2023-08-17T01:53:16;12;12;
63915;PMS5003;50094;51.356;-0.196;2023-08-17T01:55:43;13;12;
63915;PMS5003;50094;51.356;-0.196;2023-08-17T01:58:11;13;9;
63915;PMS5003;50094;51.356;-0.196;2023-08-17T02:00:38;12;10;
63915;PMS5003;50094;51.356;-0.196;2023-08-17T02:03:05;9;9;
63915;PMS5003;50094;51.356;-0.196;2023-08-17T02:05:32;11;11;
63915;PMS5003;50094;51.356;-0.196;2023-08-17T02:07:59;14;11;
63915;PMS5003;50094;51.356;-0.196;2023-08-17T02:10:27;10;10;
63915;PMS5003;50094;51.356;-0.196;2023-08-17T02:12:54;15;11;
63915;PMS5003;50094;51.356;-0.196;2023-08-17T02:15:21;13;12;
63915;PMS5003;50094;51.356;-0.196;2023-08-17T02:17:49;11;9;
63915;PMS5003;50094;51.356;-0.196;2023-08-17T02:20:16;11;11;
63915;PMS5003;50094;51.356;-0.196;2023-08-17T02:22:44;10;10;
63915;PMS5003;50094;51.356;-0.196;2023-08-17T02:25:11;12;12;
63915;PMS5003;50094;51.356;-0.196;2023-08-17T02:27:38;17;13;
63915;PMS5003;50094;51.356;-0.196;2023-08-17T02:30:06;8;8;
63915;PMS5003;50094;51.356;-0.196;2023-08-17T02:32:34;13;11;
63915;PMS5003;50094;51.356;-0.196;2023-08-17T02:35:01;15;14;
63915;PMS5003;50094;51.356;-0.196;2023-08-17T02:37:29;9;9;
63915;PMS5003;50094;51.356;-0.196;2023-08-17T02:39:56;12;10;
63915;PMS5003;50094;51.356;-0.196;2023-08-17T02:42:24;11;11;
63915;PMS5003;50094;51.356;-0.196;2023-08-17T02:44:51;12;12;
63915;PMS5003;50094;51.356;-0.196;2023-08-17T02:47:18;11;11;
63915;PMS5003;50094;51.356;-0.196;2023-08-17T02:49:45;14;10;
63915;PMS5003;50094;51.356;-0.196;2023-08-17T02:52:12;10;9;
63915;PMS5003;50094;51.356;-0.196;2023-08-17T02:54:40;14;12;
63915;PMS5003;50094;51.356;-0.196;2023-08-17T02:57:07;11;10;
63915;PMS5003;50094;51.356;-0.196;2023-08-17T02:59:35;9;9;
63915;PMS5003;50094;51.356;-0.196;2023-08-17T03:02:02;10;9;
63915;PMS5003;50094;51.356;-0.196;2023-08-17T03:04:29;10;10;
63915;PMS5003;50094;51.356;-0.196;2023-08-17T03:06:56;12;10;
63915;PMS5003;50094;51.356;-0.196;2023-08-17T03:09:23;14;10;
63915;PMS5003;50094;51.356;-0.196;2023-08-17T03:11:50;9;9;
63915;PMS5003;50094;51.356;-0.196;2023-08-17T03:14:17;13;11;
63915;PMS5003;50094;51.356;-0.196;2023-08-17T03:16:44;13;10;
63915;PMS5003;50094;51.356;-0.196;2023-08-17T03:19:12;11;9;
63915;PMS5003;50094;51.356;-0.196;2023-08-17T03:21:39;12;9;
63915;PMS5003;50094;51.356;-0.196;2023-08-17T03:24:06;9;9;
63915;PMS5003;50094;51.356;-0.196;2023-08-17T03:26:33;12;10;
63915;PMS5003;50094;51.356;-0.196;2023-08-17T03:29:00;7;6;
63915;PMS5003;50094;51.356;-0.196;2023-08-17T03:31:27;10;10;
63915;PMS5003;50094;51.356;-0.196;2023-08-17T03:33:55;9;8;
63915;PMS5003;50094;51.356;-0.196;2023-08-17T03:36:22;10;9;
63915;PMS5003;50094;51.356;-0.196;2023-08-17T03:38:49;11;8;
63915;PMS5003;50094;51.356;-0.196;2023-08-17T03:41:16;10;10;
63915;PMS5003;50094;51.356;-0.196;2023-08-17T03:43:45;13;13;
63915;PMS5003;50094;51.356;-0.196;2023-08-17T03:46:12;9;9;
63915;PMS5003;50094;51.356;-0.196;2023-08-17T03:48:39;9;8;
63915;PMS5003;50094;51.356;-0.196;2023-08-17T03:51:05;11;8;
63915;PMS5003;50094;51.356;-0.196;2023-08-17T03:53:33;11;11;
63915;PMS5003;50094;51.356;-0.196;2023-08-17T03:56:00;10;9;
63915;PMS5003;50094;51.356;-0.196;2023-08-17T03:58:27;7;7;
63915;PMS5003;50094;51.356;-0.196;2023-08-17T04:00:54;10;9;
63915;PMS5003;50094;51.356;-0.196;2023-08-17T04:03:21;8;8;
63915;PMS5003;50094;51.356;-0.196;2023-08-17T04:05:47;9;9;
63915;PMS5003;50094;51.356;-0.196;2023-08-17T04:08:15;12;9;
63915;PMS5003;50094;51.356;-0.196;2023-08-17T04:10:42;7;7;
63915;PMS5003;50094;51.356;-0.196;2023-08-17T04:13:10;11;9;
63915;PMS5003;50094;51.356;-0.196;2023-08-17T04:15:37;9;9;
63915;PMS5003;50094;51.356;-0.196;2023-08-17T04:18:04;11;8;
63915;PMS5003;50094;51.356;-0.196;2023-08-17T04:20:31;12;8;
63915;PMS5003;50094;51.356;-0.196;2023-08-17T04:22:58;7;7;
63915;PMS5003;50094;51.356;-0.196;2023-08-17T04:25:25;10;10;
63915;PMS5003;50094;51.356;-0.196;2023-08-17T04:27:52;8;8;
63915;PMS5003;50094;51.356;-0.196;2023-08-17T04:30:19;9;7;
63915;PMS5003;50094;51.356;-0.196;2023-08-17T04:32:46;10;9;
63915;PMS5003;50094;51.356;-0.196;2023-08-17T04:35:13;9;9;
63915;PMS5003;50094;51.356;-0.196;2023-08-17T04:37:41;10;8;
63915;PMS5003;50094;51.356;-0.196;2023-08-17T04:40:08;12;9;
63915;PMS5003;50094;51.356;-0.196;2023-08-17T04:42:36;7;7;
63915;PMS5003;50094;51.356;-0.196;2023-08-17T04:45:04;7;7;
63915;PMS5003;50094;51.356;-0.196;2023-08-17T04:47:32;8;6;
63915;PMS5003;50094;51.356;-0.196;2023-08-17T04:49:59;8;8;
63915;PMS5003;50094;51.356;-0.196;2023-08-17T04:52:26;6;6;
63915;PMS5003;50094;51.356;-0.196;2023-08-17T04:54:52;7;7;
63915;PMS5003;50094;51.356;-0.196;2023-08-17T04:57:20;6;6;
63915;PMS5003;50094;51.356;-0.196;2023-08-17T04:59:47;9;6;
63915;PMS5003;50094;51.356;-0.196;2023-08-17T05:02:14;8;8;
63915;PMS5003;50094;51.356;-0.196;2023-08-17T05:04:41;8;8;
63915;PMS5003;50094;51.356;-0.196;2023-08-17T05:07:08;9;8;
63915;PMS5003;50094;51.356;-0.196;2023-08-17T05:09:35;7;7;
63915;PMS5003;50094;51.356;-0.196;2023-08-17T05:12:02;9;8;
63915;PMS5003;50094;51.356;-0.196;2023-08-17T05:14:30;8;7;
63915;PMS5003;50094;51.356;-0.196;2023-08-17T05:16:57;7;7;
63915;PMS5003;50094;51.356;-0.196;2023-08-17T05:19:24;7;7;
63915;PMS5003;50094;51.356;-0.196;2023-08-17T05:21:51;8;8;
63915;PMS5003;50094;51.356;-0.196;2023-08-17T05:24:18;8;7;
63915;PMS5003;50094;51.356;-0.196;2023-08-17T05:26:45;12;7;
63915;PMS5003;50094;51.356;-0.196;2023-08-17T05:29:13;11;6;
63915;PMS5003;50094;51.356;-0.196;2023-08-17T05:31:39;8;6;
63915;PMS5003;50094;51.356;-0.196;2023-08-17T05:34:06;7;6;
63915;PMS5003;50094;51.356;-0.196;2023-08-17T05:36:34;7;7;
63915;PMS5003;50094;51.356;-0.196;2023-08-17T05:39:00;6;6;
63915;PMS5003;50094;51.356;-0.196;2023-08-17T05:41:27;7;7;
63915;PMS5003;50094;51.356;-0.196;2023-08-17T05:43:54;6;6;
63915;PMS5003;50094;51.356;-0.196;2023-08-17T05:46:22;9;8;
63915;PMS5003;50094;51.356;-0.196;2023-08-17T05:48:49;5;5;
63915;PMS5003;50094;51.356;-0.196;2023-08-17T05:51:16;12;8;
63915;PMS5003;50094;51.356;-0.196;2023-08-17T05:53:43;5;5;
63915;PMS5003;50094;51.356;-0.196;2023-08-17T05:56:10;6;5;
63915;PMS5003;50094;51.356;-0.196;2023-08-17T05:58:37;17;11;
63915;PMS5003;50094;51.356;-0.196;2023-08-17T06:01:05;9;6;
63915;PMS5003;50094;51.356;-0.196;2023-08-17T06:03:32;8;7;
63915;PMS5003;50094;51.356;-0.196;2023-08-17T06:06:00;8;7;
63915;PMS5003;50094;51.356;-0.196;2023-08-17T06:08:28;10;10;
63915;PMS5003;50094;51.356;-0.196;2023-08-17T06:10:56;10;7;
63915;PMS5003;50094;51.356;-0.196;2023-08-17T06:13:23;5;5;
63915;PMS5003;50094;51.356;-0.196;2023-08-17T06:15:51;7;5;
63915;PMS5003;50094;51.356;-0.196;2023-08-17T06:18:18;9;8;
63915;PMS5003;50094;51.356;-0.196;2023-08-17T06:20:46;13;10;
63915;PMS5003;50094;51.356;-0.196;2023-08-17T06:23:12;6;4;
63915;PMS5003;50094;51.356;-0.196;2023-08-17T06:25:40;8;7;
63915;PMS5003;50094;51.356;-0.196;2023-08-17T06:28:07;6;6;
63915;PMS5003;50094;51.356;-0.196;2023-08-17T06:30:34;8;8;
63915;PMS5003;50094;51.356;-0.196;2023-08-17T06:33:02;6;6;
63915;PMS5003;50094;51.356;-0.196;2023-08-17T06:35:29;7;5;
63915;PMS5003;50094;51.356;-0.196;2023-08-17T06:37:56;8;7;
63915;PMS5003;50094;51.356;-0.196;2023-08-17T06:40:23;7;5;
63915;PMS5003;50094;51.356;-0.196;2023-08-17T06:42:50;6;5;
63915;PMS5003;50094;51.356;-0.196;2023-08-17T06:45:17;6;6;
63915;PMS5003;50094;51.356;-0.196;2023-08-17T06:47:45;6;5;
63915;PMS5003;50094;51.356;-0.196;2023-08-17T06:50:12;7;6;
63915;PMS5003;50094;51.356;-0.196;2023-08-17T06:52:39;6;5;
63915;PMS5003;50094;51.356;-0.196;2023-08-17T06:55:07;4;4;
63915;PMS5003;50094;51.356;-0.196;2023-08-17T06:57:34;5;5;
63915;PMS5003;50094;51.356;-0.196;2023-08-17T07:00:02;8;6;
63915;PMS5003;50094;51.356;-0.196;2023-08-17T07:02:29;9;7;
63915;PMS5003;50094;51.356;-0.196;2023-08-17T07:04:56;8;8;
63915;PMS5003;50094;51.356;-0.196;2023-08-17T07:07:24;3;3;
63915;PMS5003;50094;51.356;-0.196;2023-08-17T07:09:50;7;7;
63915;PMS5003;50094;51.356;-0.196;2023-08-17T07:12:18;8;6;
63915;PMS5003;50094;51.356;-0.196;2023-08-17T07:14:45;7;6;
63915;PMS5003;50094;51.356;-0.196;2023-08-17T07:17:11;7;4;
63915;PMS5003;50094;51.356;-0.196;2023-08-17T07:19:39;6;6;
63915;PMS5003;50094;51.356;-0.196;2023-08-17T07:22:06;6;6;
63915;PMS5003;50094;51.356;-0.196;2023-08-17T07:24:34;6;6;
63915;PMS5003;50094;51.356;-0.196;2023-08-17T07:27:01;8;8;
63915;PMS5003;50094;51.356;-0.196;2023-08-17T07:29:29;8;6;
63915;PMS5003;50094;51.356;-0.196;2023-08-17T07:31:57;6;5;
63915;PMS5003;50094;51.356;-0.196;2023-08-17T07:34:23;7;7;
63915;PMS5003;50094;51.356;-0.196;2023-08-17T07:36:50;8;6;
63915;PMS5003;50094;51.356;-0.196;2023-08-17T07:39:17;6;6;
63915;PMS5003;50094;51.356;-0.196;2023-08-17T07:41:44;9;7;
63915;PMS5003;50094;51.356;-0.196;2023-08-17T07:44:11;8;8;
63915;PMS5003;50094;51.356;-0.196;2023-08-17T07:46:37;8;5;
63915;PMS5003;50094;51.356;-0.196;2023-08-17T07:49:05;8;4;
63915;PMS5003;50094;51.356;-0.196;2023-08-17T07:51:32;7;7;
63915;PMS5003;50094;51.356;-0.196;2023-08-17T07:53:59;7;7;
63915;PMS5003;50094;51.356;-0.196;2023-08-17T07:56:27;7;7;
63915;PMS5003;50094;51.356;-0.196;2023-08-17T07:58:54;9;6;
63915;PMS5003;50094;51.356;-0.196;2023-08-17T08:01:22;7;7;
63915;PMS5003;50094;51.356;-0.196;2023-08-17T08:03:50;6;6;
63915;PMS5003;50094;51.356;-0.196;2023-08-17T08:06:16;10;7;
63915;PMS5003;50094;51.356;-0.196;2023-08-17T08:08:43;7;7;
63915;PMS5003;50094;51.356;-0.196;2023-08-17T08:11:10;8;7;
63915;PMS5003;50094;51.356;-0.196;2023-08-17T08:13:38;9;8;
63915;PMS5003;50094;51.356;-0.196;2023-08-17T08:16:05;8;8;
63915;PMS5003;50094;51.356;-0.196;2023-08-17T08:18:32;6;5;
63915;PMS5003;50094;51.356;-0.196;2023-08-17T08:21:00;8;6;
63915;PMS5003;50094;51.356;-0.196;2023-08-17T08:23:27;7;7;
63915;PMS5003;50094;51.356;-0.196;2023-08-17T08:25:55;7;7;
63915;PMS5003;50094;51.356;-0.196;2023-08-17T08:28:22;8;8;
63915;PMS5003;50094;51.356;-0.196;2023-08-17T08:30:49;8;8;
63915;PMS5003;50094;51.356;-0.196;2023-08-17T08:33:15;9;7;
63915;PMS5003;50094;51.356;-0.196;2023-08-17T08:35:43;8;8;
63915;PMS5003;50094;51.356;-0.196;2023-08-17T08:38:10;7;7;
63915;PMS5003;50094;51.356;-0.196;2023-08-17T08:40:37;6;6;
63915;PMS5003;50094;51.356;-0.196;2023-08-17T08:43:07;9;8;
63915;PMS5003;50094;51.356;-0.196;2023-08-17T08:45:35;8;6;
63915;PMS5003;50094;51.356;-0.196;2023-08-17T08:48:04;9;8;
63915;PMS5003;50094;51.356;-0.196;2023-08-17T08:50:32;8;7;
63915;PMS5003;50094;51.356;-0.196;2023-08-17T08:53:02;9;9;
63915;PMS5003;50094;51.356;-0.196;2023-08-17T08:55:35;7;6;
63915;PMS5003;50094;51.356;-0.196;2023-08-17T08:58:05;8;8;
63915;PMS5003;50094;51.356;-0.196;2023-08-17T09:00:33;10;7;
63915;PMS5003;50094;51.356;-0.196;2023-08-17T09:03:01;7;7;
63915;PMS5003;50094;51.356;-0.196;2023-08-17T09:05:29;7;7;
63915;PMS5003;50094;51.356;-0.196;2023-08-17T09:07:58;7;7;
63915;PMS5003;50094;51.356;-0.196;2023-08-17T09:10:27;8;8;
63915;PMS5003;50094;51.356;-0.196;2023-08-17T09:12:55;10;8;
63915;PMS5003;50094;51.356;-0.196;2023-08-17T09:15:22;7;7;
63915;PMS5003;50094;51.356;-0.196;2023-08-17T09:17:49;7;7;
63915;PMS5003;50094;51.356;-0.196;2023-08-17T09:20:34;7;7;
63915;PMS5003;50094;51.356;-0.196;2023-08-17T09:23:03;6;6;
63915;PMS5003;50094;51.356;-0.196;2023-08-17T09:25:31;7;7;
63915;PMS5003;50094;51.356;-0.196;2023-08-17T09:27:58;7;5;
63915;PMS5003;50094;51.356;-0.196;2023-08-17T09:30:32;10;6;
63915;PMS5003;50094;51.356;-0.196;2023-08-17T09:33:01;7;7;
63915;PMS5003;50094;51.356;-0.196;2023-08-17T09:35:31;6;5;
63915;PMS5003;50094;51.356;-0.196;2023-08-17T09:37:59;6;6;
63915;PMS5003;50094;51.356;-0.196;2023-08-17T09:40:25;8;8;
63915;PMS5003;50094;51.356;-0.196;2023-08-17T09:42:53;9;7;
63915;PMS5003;50094;51.356;-0.196;2023-08-17T09:45:21;7;6;
63915;PMS5003;50094;51.356;-0.196;2023-08-17T09:47:48;6;6;
63915;PMS5003;50094;51.356;-0.196;2023-08-17T09:50:16;7;6;
63915;PMS5003;50094;51.356;-0.196;2023-08-17T09:52:47;7;6;
63915;PMS5003;50094;51.356;-0.196;2023-08-17T09:55:18;5;5;
63915;PMS5003;50094;51.356;-0.196;2023-08-17T09:57:47;6;5;
63915;PMS5003;50094;51.356;-0.196;2023-08-17T10:00:15;7;6;
63915;PMS5003;50094;51.356;-0.196;2023-08-17T10:02:43;6;6;
63915;PMS5003;50094;51.356;-0.196;2023-08-17T10:05:12;7;5;
63915;PMS5003;50094;51.356;-0.196;2023-08-17T10:07:43;7;7;
63915;PMS5003;50094;51.356;-0.196;2023-08-17T10:10:14;5;5;
63915;PMS5003;50094;51.356;-0.196;2023-08-17T10:12:49;8;6;
63915;PMS5003;50094;51.356;-0.196;2023-08-17T10:15:24;5;5;
63915;PMS5003;50094;51.356;-0.196;2023-08-17T10:17:58;7;6;
63915;PMS5003;50094;51.356;-0.196;2023-08-17T10:20:34;9;7;
63915;PMS5003;50094;51.356;-0.196;2023-08-17T10:23:06;8;6;
63915;PMS5003;50094;51.356;-0.196;2023-08-17T10:25:38;5;5;
63915;PMS5003;50094;51.356;-0.196;2023-08-17T10:28:08;7;6;
63915;PMS5003;50094;51.356;-0.196;2023-08-17T10:30:36;4;4;
63915;PMS5003;50094;51.356;-0.196;2023-08-17T10:33:04;6;5;
63915;PMS5003;50094;51.356;-0.196;2023-08-17T10:35:32;7;5;
63915;PMS5003;50094;51.356;-0.196;2023-08-17T10:38:01;8;7;
63915;PMS5003;50094;51.356;-0.196;2023-08-17T10:40:34;4;4;
63915;PMS5003;50094;51.356;-0.196;2023-08-17T10:43:03;3;3;
63915;PMS5003;50094;51.356;-0.196;2023-08-17T10:45:31;7;7;
63915;PMS5003;50094;51.356;-0.196;2023-08-17T10:48:00;7;7;
63915;PMS5003;50094;51.356;-0.196;2023-08-17T10:50:59;5;5;
63915;PMS5003;50094;51.356;-0.196;2023-08-17T10:53:33;7;6;
63915;PMS5003;50094;51.356;-0.196;2023-08-17T10:56:01;7;6;
63915;PMS5003;50094;51.356;-0.196;2023-08-17T10:58:33;4;4;
63915;PMS5003;50094;51.356;-0.196;2023-08-17T11:01:00;5;5;
63915;PMS5003;50094;51.356;-0.196;2023-08-17T11:03:28;6;5;
63915;PMS5003;50094;51.356;-0.196;2023-08-17T11:05:56;6;6;
63915;PMS5003;50094;51.356;-0.196;2023-08-17T11:08:24;5;5;
63915;PMS5003;50094;51.356;-0.196;2023-08-17T11:10:57;3;3;
63915;PMS5003;50094;51.356;-0.196;2023-08-17T11:13:27;4;4;
63915;PMS5003;50094;51.356;-0.196;2023-08-17T11:15:55;6;6;
63915;PMS5003;50094;51.356;-0.196;2023-08-17T11:18:21;8;7;
63915;PMS5003;50094;51.356;-0.196;2023-08-17T11:20:49;4;4;
63915;PMS5003;50094;51.356;-0.196;2023-08-17T11:23:17;5;5;
63915;PMS5003;50094;51.356;-0.196;2023-08-17T11:25:44;5;5;
63915;PMS5003;50094;51.356;-0.196;2023-08-17T11:28:12;4;2;
63915;PMS5003;50094;51.356;-0.196;2023-08-17T11:30:40;8;5;
63915;PMS5003;50094;51.356;-0.196;2023-08-17T11:33:08;5;5;
63915;PMS5003;50094;51.356;-0.196;2023-08-17T11:35:36;6;5;
63915;PMS5003;50094;51.356;-0.196;2023-08-17T11:38:03;6;4;
63915;PMS5003;50094;51.356;-0.196;2023-08-17T11:40:31;7;6;
63915;PMS5003;50094;51.356;-0.196;2023-08-17T11:42:59;4;4;
63915;PMS5003;50094;51.356;-0.196;2023-08-17T11:45:25;10;5;
63915;PMS5003;50094;51.356;-0.196;2023-08-17T11:47:53;6;5;
63915;PMS5003;50094;51.356;-0.196;2023-08-17T11:50:20;8;4;
63915;PMS5003;50094;51.356;-0.196;2023-08-17T11:52:47;7;5;
63915;PMS5003;50094;51.356;-0.196;2023-08-17T11:55:15;6;4;
63915;PMS5003;50094;51.356;-0.196;2023-08-17T11:57:44;4;3;
63915;PMS5003;50094;51.356;-0.196;2023-08-17T12:00:16;5;5;
63915;PMS5003;50094;51.356;-0.196;2023-08-17T12:02:46;6;6;
63915;PMS5003;50094;51.356;-0.196;2023-08-17T12:05:18;4;4;
63915;PMS5003;50094;51.356;-0.196;2023-08-17T12:07:46;5;5;
63915;PMS5003;50094;51.356;-0.196;2023-08-17T12:10:14;5;5;
63915;PMS5003;50094;51.356;-0.196;2023-08-17T12:12:42;5;5;
63915;PMS5003;50094;51.356;-0.196;2023-08-17T12:15:09;4;4;
63915;PMS5003;50094;51.356;-0.196;2023-08-17T12:17:40;6;5;
63915;PMS5003;50094;51.356;-0.196;2023-08-17T12:20:15;6;4;
63915;PMS5003;50094;51.356;-0.196;2023-08-17T12:22:43;3;3;
63915;PMS5003;50094;51.356;-0.196;2023-08-17T12:25:10;6;5;
63915;PMS5003;50094;51.356;-0.196;2023-08-17T12:27:38;4;4;
63915;PMS5003;50094;51.356;-0.196;2023-08-17T12:30:11;9;6;
63915;PMS5003;50094;51.356;-0.196;2023-08-17T12:32:39;6;5;
63915;PMS5003;50094;51.356;-0.196;2023-08-17T12:35:06;5;5;
63915;PMS5003;50094;51.356;-0.196;2023-08-17T12:37:34;4;3;
63915;PMS5003;50094;51.356;-0.196;2023-08-17T12:40:02;6;4;
63915;PMS5003;50094;51.356;-0.196;2023-08-17T12:42:30;5;4;
63915;PMS5003;50094;51.356;-0.196;2023-08-17T12:44:57;4;4;
63915;PMS5003;50094;51.356;-0.196;2023-08-17T12:47:24;6;5;
63915;PMS5003;50094;51.356;-0.196;2023-08-17T12:49:52;2;2;
63915;PMS5003;50094;51.356;-0.196;2023-08-17T12:52:19;5;3;
63915;PMS5003;50094;51.356;-0.196;2023-08-17T12:54:46;6;6;
63915;PMS5003;50094;51.356;-0.196;2023-08-17T12:57:13;5;4;
63915;PMS5003;50094;51.356;-0.196;2023-08-17T12:59:41;4;4;
63915;PMS5003;50094;51.356;-0.196;2023-08-17T13:02:07;7;5;
63915;PMS5003;50094;51.356;-0.196;2023-08-17T13:04:34;4;4;
63915;PMS5003;50094;51.356;-0.196;2023-08-17T13:07:01;8;7;
63915;PMS5003;50094;51.356;-0.196;2023-08-17T13:09:29;4;4;
63915;PMS5003;50094;51.356;-0.196;2023-08-17T13:11:55;6;6;
63915;PMS5003;50094;51.356;-0.196;2023-08-17T13:14:23;4;4;
63915;PMS5003;50094;51.356;-0.196;2023-08-17T13:16:52;4;4;
63915;PMS5003;50094;51.356;-0.196;2023-08-17T13:19:18;6;5;
63915;PMS5003;50094;51.356;-0.196;2023-08-17T13:21:45;5;3;
63915;PMS5003;50094;51.356;-0.196;2023-08-17T13:24:12;3;3;
63915;PMS5003;50094;51.356;-0.196;2023-08-17T13:26:40;4;4;
63915;PMS5003;50094;51.356;-0.196;2023-08-17T13:29:07;4;4;
63915;PMS5003;50094;51.356;-0.196;2023-08-17T13:31:34;4;4;
63915;PMS5003;50094;51.356;-0.196;2023-08-17T13:34:02;4;4;
63915;PMS5003;50094;51.356;-0.196;2023-08-17T13:36:29;5;4;
63915;PMS5003;50094;51.356;-0.196;2023-08-17T13:38:57;7;6;
63915;PMS5003;50094;51.356;-0.196;2023-08-17T13:41:25;4;4;
63915;PMS5003;50094;51.356;-0.196;2023-08-17T13:43:52;3;3;
63915;PMS5003;50094;51.356;-0.196;2023-08-17T13:46:19;5;4;
63915;PMS5003;50094;51.356;-0.196;2023-08-17T13:48:46;3;3;
63915;PMS5003;50094;51.356;-0.196;2023-08-17T13:51:14;8;6;
63915;PMS5003;50094;51.356;-0.196;2023-08-17T13:53:41;6;4;
63915;PMS5003;50094;51.356;-0.196;2023-08-17T13:56:09;3;3;
63915;PMS5003;50094;51.356;-0.196;2023-08-17T13:58:36;4;4;
63915;PMS5003;50094;51.356;-0.196;2023-08-17T14:01:03;5;4;
63915;PMS5003;50094;51.356;-0.196;2023-08-17T14:03:30;4;4;
63915;PMS5003;50094;51.356;-0.196;2023-08-17T14:05:57;6;4;
63915;PMS5003;50094;51.356;-0.196;2023-08-17T14:08:24;7;6;
63915;PMS5003;50094;51.356;-0.196;2023-08-17T14:10:50;5;5;
63915;PMS5003;50094;51.356;-0.196;2023-08-17T14:13:17;5;3;
63915;PMS5003;50094;51.356;-0.196;2023-08-17T14:15:44;6;5;
63915;PMS5003;50094;51.356;-0.196;2023-08-17T14:18:11;7;6;
63915;PMS5003;50094;51.356;-0.196;2023-08-17T14:20:38;6;4;
63915;PMS5003;50094;51.356;-0.196;2023-08-17T14:23:06;3;3;
63915;PMS5003;50094;51.356;-0.196;2023-08-17T14:25:33;7;4;
63915;PMS5003;50094;51.356;-0.196;2023-08-17T14:28:03;6;6;
63915;PMS5003;50094;51.356;-0.196;2023-08-17T14:30:31;5;4;
63915;PMS5003;50094;51.356;-0.196;2023-08-17T14:32:57;4;4;
63915;PMS5003;50094;51.356;-0.196;2023-08-17T14:35:26;6;6;
63915;PMS5003;50094;51.356;-0.196;2023-08-17T14:37:54;7;7;
63915;PMS5003;50094;51.356;-0.196;2023-08-17T14:40:21;5;5;
63915;PMS5003;50094;51.356;-0.196;2023-08-17T14:42:49;5;5;
63915;PMS5003;50094;51.356;-0.196;2023-08-17T14:45:16;5;5;
63915;PMS5003;50094;51.356;-0.196;2023-08-17T14:47:43;4;4;
63915;PMS5003;50094;51.356;-0.196;2023-08-17T14:50:10;6;6;
63915;PMS5003;50094;51.356;-0.196;2023-08-17T14:52:37;4;3;
63915;PMS5003;50094;51.356;-0.196;2023-08-17T14:55:05;4;4;
63915;PMS5003;50094;51.356;-0.196;2023-08-17T14:57:32;7;4;
63915;PMS5003;50094;51.356;-0.196;2023-08-17T15:00:00;7;7;
63915;PMS5003;50094;51.356;-0.196;2023-08-17T15:02:28;4;4;
63915;PMS5003;50094;51.356;-0.196;2023-08-17T15:04:55;5;5;
63915;PMS5003;50094;51.356;-0.196;2023-08-17T15:07:22;9;5;
63915;PMS5003;50094;51.356;-0.196;2023-08-17T15:09:49;5;4;
63915;PMS5003;50094;51.356;-0.196;2023-08-17T15:12:16;5;5;
63915;PMS5003;50094;51.356;-0.196;2023-08-17T15:14:44;4;4;
63915;PMS5003;50094;51.356;-0.196;2023-08-17T15:17:11;3;3;
63915;PMS5003;50094;51.356;-0.196;2023-08-17T15:19:39;4;4;
63915;PMS5003;50094;51.356;-0.196;2023-08-17T15:22:07;4;4;
63915;PMS5003;50094;51.356;-0.196;2023-08-17T15:24:35;5;5;
63915;PMS5003;50094;51.356;-0.196;2023-08-17T15:27:02;5;4;
63915;PMS5003;50094;51.356;-0.196;2023-08-17T15:29:30;6;5;
63915;PMS5003;50094;51.356;-0.196;2023-08-17T15:31:57;4;4;
63915;PMS5003;50094;51.356;-0.196;2023-08-17T15:34:24;4;4;
63915;PMS5003;50094;51.356;-0.196;2023-08-17T15:36:51;2;2;
63915;PMS5003;50094;51.356;-0.196;2023-08-17T15:39:18;4;4;
63915;PMS5003;50094;51.356;-0.196;2023-08-17T15:41:45;4;4;
63915;PMS5003;50094;51.356;-0.196;2023-08-17T15:44:13;3;3;
63915;PMS5003;50094;51.356;-0.196;2023-08-17T15:46:41;4;4;
63915;PMS5003;50094;51.356;-0.196;2023-08-17T15:49:08;7;4;
63915;PMS5003;50094;51.356;-0.196;2023-08-17T15:51:35;5;5;
63915;PMS5003;50094;51.356;-0.196;2023-08-17T15:54:01;3;3;
63915;PMS5003;50094;51.356;-0.196;2023-08-17T15:56:29;4;3;
63915;PMS5003;50094;51.356;-0.196;2023-08-17T15:58:56;3;3;
63915;PMS5003;50094;51.356;-0.196;2023-08-17T16:01:24;5;3;
63915;PMS5003;50094;51.356;-0.196;2023-08-17T16:03:51;5;5;
63915;PMS5003;50094;51.356;-0.196;2023-08-17T16:06:18;2;2;
63915;PMS5003;50094;51.356;-0.196;2023-08-17T16:08:45;3;3;
63915;PMS5003;50094;51.356;-0.196;2023-08-17T16:11:11;3;3;
63915;PMS5003;50094;51.356;-0.196;2023-08-17T16:13:40;4;4;
63915;PMS5003;50094;51.356;-0.196;2023-08-17T16:16:07;4;4;
63915;PMS5003;50094;51.356;-0.196;2023-08-17T16:18:34;4;3;
63915;PMS5003;50094;51.356;-0.196;2023-08-17T16:21:01;3;3;
63915;PMS5003;50094;51.356;-0.196;2023-08-17T16:23:28;3;2;
63915;PMS5003;50094;51.356;-0.196;2023-08-17T16:25:55;2;2;
63915;PMS5003;50094;51.356;-0.196;2023-08-17T16:28:23;3;3;
63915;PMS5003;50094;51.356;-0.196;2023-08-17T16:30:50;3;3;
63915;PMS5003;50094;51.356;-0.196;2023-08-17T16:33:18;2;1;